Time;durP1;ratioP1;P1;durP2;ratioP2;P2;SDS_P1;SDS_P2;PMS_P1;PMS_P2;Temp;Humidity;BMP_temperature;BMP_pressure;BME280_temperature;BME280_humidity;BME280_pressure;Samples;Min_cycle;Max_cycle;Signal;HPM_P1;HPM_P2
2023/04/19 04:17:02;;;;;;;;;22.00;20.25;;;;;;;;6490252;39;14762;-50
2023/04/19 04:23:06;;;;;;;;;22.25;19.00;;;;;;;;6491207;39;8885;-50
2023/04/19 04:29:11;;;;;;;;;15.25;14.25;;;;;;;;6492296;39;8902;-49
2023/04/19 04:35:16;;;;;;;;;17.75;15.00;;;;;;;;6488400;39;8901;-49
2023/04/19 04:41:26;;;;;;;;;18.00;15.00;;;;;;;;6491670;39;8915;-52
2023/04/19 04:47:34;;;;;;;;;16.00;12.00;;;;;;;;6491456;46;8877;-49
2023/04/19 04:53:39;;;;;;;;;20.00;17.67;;;;;;;;6490317;39;8951;-51
2023/04/19 04:59:43;;;;;;;;;18.33;16.67;;;;;;;;6491770;39;8932;-49
2023/04/19 05:05:45;;;;;;;;;17.00;17.00;;;;;;;;6490313;46;9033;-48
2023/04/19 05:11:47;;;;;;;;;23.00;18.33;;;;;;;;6490808;39;8948;-48
2023/04/19 05:17:50;;;;;;;;;15.00;15.00;;;;;;;;6491449;39;9413;-51
2023/04/19 05:23:55;;;;;;;;;12.67;12.67;;;;;;;;6490855;39;8892;-50
2023/04/19 05:29:57;;;;;;;;;19.00;16.00;;;;;;;;6491188;39;8938;-54
2023/04/19 05:36:00;;;;;;;;;21.67;20.33;;;;;;;;6490617;31;9483;-52
2023/04/19 05:42:02;;;;;;;;;14.67;14.67;;;;;;;;6490731;39;9659;-53
2023/04/19 05:48:05;;;;;;;;;18.67;17.33;;;;;;;;6492102;39;9569;-51
2023/04/19 05:54:34;;;;;;;;;20.67;19.67;;;;;;;;6489668;46;9012;-50
2023/04/19 06:00:38;;;;;;;;;26.33;26.00;;;;;;;;6490614;46;8880;-54
2023/04/19 06:06:45;;;;;;;;;30.33;30.33;;;;;;;;6489130;39;8985;-53
2023/04/19 06:12:49;;;;;;;;;38.00;36.00;;;;;;;;6488449;39;9009;-56
2023/04/19 06:18:52;;;;;;;;;27.67;27.33;;;;;;;;6488162;31;8930;-54
2023/04/19 06:24:55;;;;;;;;;30.75;28.25;;;;;;;;6489454;31;8888;-54
2023/04/19 06:30:57;;;;;;;;;19.75;19.75;;;;;;;;6488037;31;9652;-53
2023/04/19 06:36:59;;;;;;;;;25.00;23.33;;;;;;;;6488341;31;9019;-54
2023/04/19 06:43:02;;;;;;;;;29.25;27.50;;;;;;;;6486421;31;8919;-53
2023/04/19 06:49:07;;;;;;;;;25.25;25.00;;;;;;;;6485967;39;8949;-53
2023/04/19 06:55:09;;;;;;;;;27.50;24.00;;;;;;;;6488027;39;8905;-51
2023/04/19 07:01:12;;;;;;;;;24.67;24.00;;;;;;;;6488149;31;9014;-53
2023/04/19 07:07:14;;;;;;;;;37.50;36.00;;;;;;;;6486776;47;8915;-55
2023/04/19 07:13:16;;;;;;;;;27.25;25.50;;;;;;;;6488933;39;8946;-51
2023/04/19 07:19:19;;;;;;;;;27.00;24.67;;;;;;;;6485409;46;8910;-53
2023/04/19 07:25:22;;;;;;;;;25.67;25.00;;;;;;;;6484830;46;8962;-55
2023/04/19 07:31:25;;;;;;;;;34.33;29.00;;;;;;;;6487938;39;9543;-49
2023/04/19 07:37:27;;;;;;;;;25.00;22.00;;;;;;;;6487370;31;8932;-49
2023/04/19 07:43:29;;;;;;;;;32.33;27.33;;;;;;;;6486510;39;8954;-52
2023/04/19 07:49:33;;;;;;;;;27.00;23.33;;;;;;;;6487013;39;8918;-54
2023/04/19 07:55:35;;;;;;;;;26.33;26.00;;;;;;;;6486206;31;8976;-50
2023/04/19 08:01:39;;;;;;;;;23.00;21.00;;;;;;;;6488230;31;9005;-54
2023/04/19 08:07:43;;;;;;;;;31.33;28.33;;;;;;;;6488997;31;8929;-53
2023/04/19 08:13:45;;;;;;;;;29.67;29.00;;;;;;;;6488417;39;8977;-51
2023/04/19 08:20:10;;;;;;;;;27.00;26.33;;;;;;;;6487889;39;8908;-55
2023/04/19 08:26:12;;;;;;;;;30.33;27.33;;;;;;;;6487634;39;8987;-54
2023/04/19 08:32:15;;;;;;;;;23.33;23.33;;;;;;;;6488262;39;8913;-52
2023/04/19 08:38:17;;;;;;;;;34.33;29.00;;;;;;;;6487495;39;8938;-54
2023/04/19 08:44:21;;;;;;;;;22.33;22.33;;;;;;;;6486873;39;8949;-56
2023/04/19 08:50:40;;;;;;;;;31.00;27.33;;;;;;;;6485750;39;9062;-53
2023/04/19 08:57:02;;;;;;;;;24.00;22.33;;;;;;;;6486751;31;9031;-54
2023/04/19 09:03:06;;;;;;;;;28.33;24.33;;;;;;;;6487245;39;8957;-53
2023/04/19 09:09:15;;;;;;;;;24.67;22.00;;;;;;;;6485074;46;8948;-53
2023/04/19 09:15:38;;;;;;;;;26.67;23.33;;;;;;;;6487001;39;8933;-57
2023/04/19 09:21:41;;;;;;;;;20.33;20.33;;;;;;;;6487997;39;8912;-54
2023/04/19 09:27:44;;;;;;;;;21.33;20.33;;;;;;;;6487201;31;8931;-55
2023/04/19 09:33:46;;;;;;;;;22.67;19.00;;;;;;;;6487091;46;8913;-56
2023/04/19 09:39:50;;;;;;;;;30.00;26.33;;;;;;;;6487403;39;9049;-53
2023/04/19 09:45:52;;;;;;;;;22.67;19.33;;;;;;;;6488113;31;9048;-56
2023/04/19 09:51:55;;;;;;;;;17.00;17.00;;;;;;;;6486821;46;8965;-56
2023/04/19 09:58:03;;;;;;;;;22.33;21.00;;;;;;;;6486891;31;9044;-56
2023/04/19 10:04:06;;;;;;;;;25.67;23.00;;;;;;;;6485974;39;9159;-55
2023/04/19 10:10:29;;;;;;;;;21.00;20.67;;;;;;;;6485966;39;8961;-55
2023/04/19 10:16:37;;;;;;;;;20.00;19.67;;;;;;;;6487487;31;8974;-54
2023/04/19 10:22:41;;;;;;;;;20.67;18.00;;;;;;;;6486937;46;8963;-57
2023/04/19 10:28:43;;;;;;;;;18.33;17.33;;;;;;;;6486775;46;9020;-56
2023/04/19 10:34:46;;;;;;;;;16.33;13.67;;;;;;;;6485640;39;8983;-56
2023/04/19 10:40:54;;;;;;;;;21.67;21.00;;;;;;;;6486626;31;8920;-57
2023/04/19 10:46:59;;;;;;;;;20.00;17.33;;;;;;;;6485218;46;8962;-57
2023/04/19 10:53:40;;;;;;;;;20.00;17.33;;;;;;;;6484683;31;8908;-55
2023/04/19 10:59:43;;;;;;;;;25.67;19.00;;;;;;;;6485812;39;8953;-56
2023/04/19 11:06:18;;;;;;;;;21.00;20.00;;;;;;;;6486107;39;8925;-56
2023/04/19 11:12:23;;;;;;;;;22.00;21.33;;;;;;;;6486649;47;8939;-56
2023/04/19 11:18:28;;;;;;;;;21.50;18.50;;;;;;;;6531962;36;8944;-53
2023/04/19 11:24:34;;;;;;;;;17.67;17.67;;;;;;;;6484742;47;8962;-55
2023/04/19 11:30:37;;;;;;;;;19.33;19.33;;;;;;;;6486487;31;8933;-56
2023/04/19 11:36:48;;;;;;;;;15.33;15.33;;;;;;;;6487432;39;8915;-56
2023/04/19 11:43:00;;;;;;;;;13.67;13.33;;;;;;;;6488209;39;9642;-56
2023/04/19 11:49:02;;;;;;;;;17.67;16.67;;;;;;;;6487547;39;8958;-55
2023/04/19 11:55:19;;;;;;;;;14.00;13.00;;;;;;;;6488454;46;8913;-55
2023/04/19 12:01:24;;;;;;;;;16.33;16.00;;;;;;;;6487736;39;8982;-55
2023/04/19 12:07:30;;;;;;;;;13.33;13.33;;;;;;;;6488147;39;8999;-56
2023/04/19 12:13:33;;;;;;;;;18.33;16.67;;;;;;;;6489197;46;8957;-54
2023/04/19 12:19:50;;;;;;;;;18.33;17.33;;;;;;;;6487621;31;9015;-55
2023/04/19 12:25:53;;;;;;;;;18.33;17.00;;;;;;;;6487404;39;8970;-58
2023/04/19 12:31:58;;;;;;;;;12.00;11.00;;;;;;;;6485938;46;8963;-57
2023/04/19 12:38:02;;;;;;;;;16.00;16.00;;;;;;;;6485984;39;9577;-55
2023/04/19 12:44:06;;;;;;;;;16.33;16.33;;;;;;;;6486198;31;10041;-55
2023/04/19 12:50:12;;;;;;;;;17.33;15.00;;;;;;;;6486550;39;9627;-56
2023/04/19 12:56:16;;;;;;;;;20.33;16.00;;;;;;;;6486368;46;8939;-55
2023/04/19 13:02:20;;;;;;;;;19.00;18.00;;;;;;;;6497148;31;9046;-54
2023/04/19 13:08:23;;;;;;;;;28.33;25.67;;;;;;;;6487041;39;9062;-55
2023/04/19 13:14:50;;;;;;;;;28.00;26.33;;;;;;;;6487721;46;9064;-55
2023/04/19 13:20:52;;;;;;;;;30.33;28.00;;;;;;;;6485588;39;8958;-55
2023/04/19 13:26:55;;;;;;;;;31.67;31.67;;;;;;;;6303789;39;10000843;-52
2023/04/19 13:33:00;;;;;;;;;30.67;29.33;;;;;;;;6486886;46;8970;-53
2023/04/19 13:39:06;;;;;;;;;42.33;37.33;;;;;;;;6487950;39;8962;-55
2023/04/19 13:45:10;;;;;;;;;99.50;88.75;;;;;;;;6488114;46;8915;-56
2023/04/19 13:51:15;;;;;;;;;33.67;31.67;;;;;;;;6447158;39;5002857;-56
2023/04/19 13:57:17;;;;;;;;;34.00;29.33;;;;;;;;5862466;36;10003066;-53
2023/04/19 14:03:22;;;;;;;;;30.33;29.67;;;;;;;;6487389;39;9001;-52
2023/04/19 14:09:25;;;;;;;;;36.00;31.67;;;;;;;;6487631;39;9090;-56
2023/04/19 14:15:27;;;;;;;;;32.67;32.33;;;;;;;;6487696;39;9029;-54
2023/04/19 14:21:30;;;;;;;;;44.75;36.25;;;;;;;;6488609;39;9038;-55
2023/04/19 14:27:34;;;;;;;;;45.75;40.00;;;;;;;;6487861;39;8939;-56
2023/04/19 14:33:37;;;;;;;;;48.33;40.67;;;;;;;;6487516;39;8993;-52
2023/04/19 14:39:39;;;;;;;;;35.67;34.33;;;;;;;;6487173;39;8923;-52
2023/04/19 14:45:42;;;;;;;;;41.33;37.00;;;;;;;;6488001;31;8987;-51
2023/04/19 14:51:45;;;;;;;;;41.67;35.00;;;;;;;;6487631;39;9649;-55
2023/04/19 14:57:47;;;;;;;;;44.33;34.00;;;;;;;;6487343;31;8900;-53
2023/04/19 15:03:49;;;;;;;;;36.00;33.00;;;;;;;;6486694;39;8995;-56
2023/04/19 15:09:54;;;;;;;;;34.50;30.50;;;;;;;;6486528;47;8895;-54
2023/04/19 15:15:57;;;;;;;;;36.00;34.00;;;;;;;;6486415;47;8948;-54
2023/04/19 15:22:02;;;;;;;;;34.00;32.33;;;;;;;;6487132;47;8943;-56
2023/04/19 15:28:05;;;;;;;;;37.00;33.00;;;;;;;;6488220;39;8989;-55
2023/04/19 15:34:10;;;;;;;;;28.50;28.00;;;;;;;;6352614;31;10001118;-56
2023/04/19 15:40:13;;;;;;;;;27.00;26.67;;;;;;;;6484946;47;8924;-56
2023/04/19 15:46:15;;;;;;;;;26.00;24.67;;;;;;;;6486818;31;8977;-52
2023/04/19 15:52:18;;;;;;;;;38.00;36.67;;;;;;;;6486488;39;8970;-55
2023/04/19 15:58:22;;;;;;;;;26.33;25.67;;;;;;;;6486604;47;8942;-53
2023/04/19 16:04:24;;;;;;;;;25.67;24.67;;;;;;;;6485955;31;9001;-54
2023/04/19 16:10:27;;;;;;;;;41.50;36.00;;;;;;;;6486689;39;8911;-55
2023/04/19 16:16:31;;;;;;;;;34.00;33.33;;;;;;;;6487648;39;8951;-54
2023/04/19 16:22:34;;;;;;;;;19.67;19.67;;;;;;;;6488001;39;8943;-56
2023/04/19 16:28:36;;;;;;;;;27.00;24.33;;;;;;;;6488558;39;8911;-55
2023/04/19 16:34:39;;;;;;;;;24.67;23.33;;;;;;;;6488360;39;8939;-54
2023/04/19 16:40:43;;;;;;;;;22.33;22.33;;;;;;;;6489255;39;9014;-57
2023/04/19 16:46:45;;;;;;;;;28.67;27.33;;;;;;;;6488468;39;8919;-53
2023/04/19 16:52:49;;;;;;;;;37.00;31.50;;;;;;;;6488365;39;9901;-55
2023/04/19 16:58:54;;;;;;;;;35.33;31.33;;;;;;;;6488287;39;9507;-54
2023/04/19 17:04:57;;;;;;;;;32.00;29.67;;;;;;;;6488376;39;9014;-54
2023/04/19 17:10:59;;;;;;;;;37.25;35.25;;;;;;;;6489049;31;9038;-57
2023/04/19 17:17:02;;;;;;;;;32.00;30.00;;;;;;;;6489341;39;9681;-55
2023/04/19 17:23:05;;;;;;;;;35.25;31.25;;;;;;;;6488879;39;8898;-55
2023/04/19 17:29:07;;;;;;;;;43.00;34.25;;;;;;;;6488253;46;8967;-55
2023/04/19 17:35:10;;;;;;;;;33.75;33.75;;;;;;;;6488809;46;8910;-53
2023/04/19 17:41:15;;;;;;;;;41.25;38.75;;;;;;;;6488219;46;8883;-53
2023/04/19 17:47:18;;;;;;;;;29.00;28.75;;;;;;;;6489466;39;8892;-52
2023/04/19 17:53:21;;;;;;;;;46.00;40.50;;;;;;;;6488153;46;8922;-54
2023/04/19 17:59:24;;;;;;;;;39.75;36.25;;;;;;;;6488289;39;8978;-52
2023/04/19 18:05:26;;;;;;;;;41.75;34.50;;;;;;;;6488163;46;8966;-54
2023/04/19 18:11:28;;;;;;;;;37.00;35.00;;;;;;;;6487998;39;9010;-53
2023/04/19 18:17:32;;;;;;;;;40.50;36.50;;;;;;;;6488606;39;8879;-53
2023/04/19 18:23:34;;;;;;;;;33.75;31.00;;;;;;;;6488578;31;9491;-54
2023/04/19 18:29:36;;;;;;;;;34.25;30.25;;;;;;;;6488162;39;8939;-55
2023/04/19 18:35:40;;;;;;;;;31.25;29.75;;;;;;;;6488716;39;8945;-52
2023/04/19 18:41:43;;;;;;;;;39.50;37.25;;;;;;;;6487168;31;9108;-53
2023/04/19 18:47:46;;;;;;;;;58.50;45.75;;;;;;;;6487857;46;8935;-54
2023/04/19 18:53:50;;;;;;;;;43.75;39.50;;;;;;;;6488048;39;9078;-53
2023/04/19 18:59:55;;;;;;;;;44.75;40.75;;;;;;;;6487438;31;10293;-51
2023/04/19 19:05:57;;;;;;;;;53.50;44.00;;;;;;;;6487709;46;8997;-55
2023/04/19 19:12:00;;;;;;;;;55.75;44.50;;;;;;;;6487518;31;8946;-56
2023/04/19 19:18:03;;;;;;;;;54.75;45.00;;;;;;;;6487244;47;8876;-54
2023/04/19 19:24:05;;;;;;;;;52.00;41.75;;;;;;;;6488046;39;8922;-52
2023/04/19 19:30:08;;;;;;;;;49.50;43.50;;;;;;;;6487770;39;8971;-54
2023/04/19 19:36:11;;;;;;;;;56.50;44.50;;;;;;;;6488044;39;8895;-55
2023/04/19 19:42:17;;;;;;;;;53.50;46.00;;;;;;;;6487585;39;8875;-53
2023/04/19 19:48:21;;;;;;;;;57.25;47.50;;;;;;;;6487603;39;8973;-54
2023/04/19 19:54:23;;;;;;;;;52.25;42.75;;;;;;;;6487399;39;8919;-53
2023/04/19 20:00:25;;;;;;;;;55.00;46.50;;;;;;;;6489356;39;9589;-52
2023/04/19 20:06:31;;;;;;;;;55.50;41.50;;;;;;;;6490034;31;8935;-50
2023/04/19 20:12:39;;;;;;;;;54.75;46.00;;;;;;;;6489240;39;8966;-55
2023/04/19 20:18:42;;;;;;;;;58.75;49.50;;;;;;;;6488616;39;8852;-53
2023/04/19 20:24:46;;;;;;;;;54.75;44.75;;;;;;;;6489854;39;8867;-54
2023/04/19 20:30:51;;;;;;;;;48.00;42.00;;;;;;;;6488612;46;9103;-52
2023/04/19 20:36:54;;;;;;;;;49.50;42.50;;;;;;;;6489191;46;8966;-53
2023/04/19 20:42:56;;;;;;;;;49.25;43.00;;;;;;;;6488821;39;9395;-51
2023/04/19 20:48:58;;;;;;;;;46.00;39.50;;;;;;;;6488774;39;9044;-50
2023/04/19 20:55:01;;;;;;;;;50.25;44.00;;;;;;;;6488758;39;8871;-54
2023/04/19 21:01:03;;;;;;;;;47.75;42.50;;;;;;;;6487959;46;8887;-53
2023/04/19 21:07:05;;;;;;;;;51.00;42.25;;;;;;;;6488750;46;8860;-51
2023/04/19 21:13:09;;;;;;;;;46.50;40.25;;;;;;;;6488464;39;8911;-53
2023/04/19 21:19:12;;;;;;;;;55.25;44.75;;;;;;;;6489579;39;8938;-54
2023/04/19 21:25:15;;;;;;;;;43.50;41.00;;;;;;;;6488600;39;8919;-52
2023/04/19 21:31:18;;;;;;;;;49.75;40.00;;;;;;;;6488312;31;9012;-53
2023/04/19 21:37:21;;;;;;;;;45.75;41.50;;;;;;;;6489201;39;8903;-51
2023/04/19 21:43:23;;;;;;;;;40.25;35.50;;;;;;;;6488545;39;9560;-52
2023/04/19 21:49:25;;;;;;;;;39.75;37.00;;;;;;;;6487885;39;8962;-52
2023/04/19 21:55:27;;;;;;;;;41.50;38.00;;;;;;;;6488201;31;8993;-53
2023/04/19 22:01:30;;;;;;;;;41.50;35.00;;;;;;;;6487619;39;8902;-54
2023/04/19 22:07:37;;;;;;;;;42.25;39.00;;;;;;;;6488560;46;8950;-55
2023/04/19 22:13:39;;;;;;;;;40.50;35.50;;;;;;;;6488148;46;8927;-55
2023/04/19 22:19:42;;;;;;;;;38.75;32.75;;;;;;;;6487985;39;8962;-55
2023/04/19 22:25:45;;;;;;;;;39.50;34.25;;;;;;;;6488111;31;9075;-53
2023/04/19 22:31:47;;;;;;;;;47.50;39.75;;;;;;;;6487897;39;8905;-51
2023/04/19 22:37:50;;;;;;;;;34.00;33.25;;;;;;;;6488770;39;9502;-53
2023/04/19 22:43:52;;;;;;;;;38.50;37.50;;;;;;;;6488050;39;8878;-54
2023/04/19 22:49:55;;;;;;;;;47.25;42.25;;;;;;;;6488671;31;8871;-53
2023/04/19 22:55:57;;;;;;;;;54.50;45.25;;;;;;;;6488016;31;8974;-52
2023/04/19 23:02:00;;;;;;;;;56.75;47.25;;;;;;;;6488151;31;8892;-50
2023/04/19 23:08:03;;;;;;;;;57.00;46.25;;;;;;;;6487691;46;8916;-55
2023/04/19 23:14:09;;;;;;;;;59.00;45.00;;;;;;;;6487627;31;8896;-53
2023/04/19 23:20:12;;;;;;;;;60.75;50.25;;;;;;;;6487909;39;9010;-54
2023/04/19 23:26:14;;;;;;;;;63.00;50.50;;;;;;;;6487661;47;8887;-55
2023/04/19 23:32:17;;;;;;;;;61.75;50.00;;;;;;;;6488736;39;8908;-54
2023/04/19 23:38:20;;;;;;;;;61.00;48.50;;;;;;;;6489377;31;8868;-53
2023/04/19 23:44:23;;;;;;;;;54.75;44.75;;;;;;;;6489566;39;8869;-52
2023/04/19 23:50:25;;;;;;;;;56.75;46.00;;;;;;;;6489483;31;8920;-50
2023/04/19 23:56:28;;;;;;;;;57.00;47.25;;;;;;;;6488325;39;8924;-54
